Johnny James — WYT8450 — position and weather

sailwx.info

Track history (hours):
 
Tides and Currents Weather Stations Pressure Air Temp Water Temp Dewpoint Dewpoint Depression Visibility Wind Speed Wind Dir Waves Ship Positions

Johnny James

Owner: CALLAIS & SONS INC, CUT OFF, LA. More information available from US FCC via Universal Licensing System and Coast Guard Vessel Documentation Center.

Last reported at 2017-Dec-30 16:00 UTC. Time now 2018-Apr-22 16:28 UTC.
Position N 29°50' W 091°60'.
Warning: this ship's position is months out of date.

MMSI: 368053796.

Date/timePositionNaut miles runAvg speedWind from/ knotsBaromVisibWave heightAir tempDewpointWater temp
2017-Dec-30 16:00N 29°50' W 091°60'2 4.6
2017-Dec-30 15:29N 29°51' W 091°57'6 5.3
2017-Dec-30 14:21N 29°50' W 091°50'  
2017-Dec-25 04:47N 29°34' W 090°28'2 6.2
2017-Dec-25 04:29N 29°34' W 090°30'3 5.9
2017-Dec-25 03:59N 29°34' W 090°34'3 5.5
2017-Dec-25 03:30N 29°35' W 090°37'2 4.9
2017-Dec-25 03:00N 29°36' W 090°39'3 5.8
2017-Dec-25 02:30N 29°37' W 090°42'2 5.0
2017-Dec-25 02:00N 29°34' W 090°43'2 4.4
2017-Dec-25 01:30N 29°33' W 090°45'0 0.3
2017-Dec-25 01:00N 29°33' W 090°45'0 0.0
2017-Dec-25 00:30N 29°33' W 090°45'2 3.5
2017-Dec-25 00:00N 29°32' W 090°47'64 4.8
2017-Dec-24 10:36N 29°50' W 091°58'1 5.9
2017-Dec-24 10:25N 29°50' W 091°59'2 5.7
2017-Dec-24 10:00N 29°49' W 092°02'2 4.5
2017-Dec-24 09:30N 29°48' W 092°04'0 0.2
2017-Dec-24 09:00N 29°48' W 092°04'0 0.2
2017-Dec-24 08:30N 29°48' W 092°04'2 4.7
2017-Dec-24 08:00N 29°48' W 092°07'3 5.2
2017-Dec-24 07:30N 29°47' W 092°10'2 4.8
2017-Dec-24 07:00N 29°47' W 092°12'1 1.8
2017-Dec-24 06:30N 29°48' W 092°13'0 0.0
2017-Dec-24 06:00N 29°48' W 092°13'1 2.9
2017-Dec-24 05:30N 29°48' W 092°15'3 5.7
2017-Dec-24 05:00N 29°50' W 092°18'0 0.4
2017-Dec-24 04:30N 29°50' W 092°18'3 4.5
2017-Dec-24 03:54N 29°51' W 092°21'2 4.2
2017-Dec-24 03:23N 29°52' W 092°23'0 0.1
2017-Dec-24 02:32N 29°52' W 092°23'0 0.4
2017-Dec-24 02:30N 29°52' W 092°23'36 5.4
2017-Dec-23 19:52N 29°56' W 093°04'2 5.6
2017-Dec-23 19:30N 29°56' W 093°06'0 0.9
2017-Dec-23 19:00N 29°56' W 093°07'1 2.5
2017-Dec-23 18:30N 29°56' W 093°08'2 4.4
2017-Dec-23 18:00N 29°57' W 093°10'2 4.6
2017-Dec-23 17:30N 29°59' W 093°12'2 5.0
2017-Dec-23 17:00N 30°01' W 093°14'3 5.1
2017-Dec-23 16:30N 30°03' W 093°16'2 4.7
2017-Dec-23 16:00N 30°05' W 093°17'2 3.8
2017-Dec-23 15:30N 30°06' W 093°19'0 0.4
2017-Dec-23 15:00N 30°06' W 093°19'0 0.1
2017-Dec-23 14:30N 30°06' W 093°19'0 0.0
2017-Dec-23 14:00N 30°06' W 093°19'0 0.0
2017-Dec-23 13:30N 30°06' W 093°19'0 0.0
2017-Dec-23 13:00N 30°06' W 093°19'0 0.0
2017-Dec-23 12:30N 30°06' W 093°19'0 0.1
2017-Dec-23 12:00N 30°06' W 093°19'0 0.3
2017-Dec-23 11:30N 30°06' W 093°19'0 0.0
2017-Dec-23 11:00N 30°06' W 093°19'0 0.0
2017-Dec-23 10:30N 30°06' W 093°19'0 0.0
2017-Dec-23 10:00N 30°06' W 093°19'0 0.1
2017-Dec-23 09:30N 30°06' W 093°19'0 0.0
2017-Dec-23 09:00N 30°06' W 093°19'0 0.0
2017-Dec-23 08:30N 30°06' W 093°19'0 0.1
2017-Dec-23 08:00N 30°06' W 093°19'0 0.0
2017-Dec-23 07:30N 30°06' W 093°19'0 0.0
2017-Dec-23 07:00N 30°06' W 093°19'0 0.0
2017-Dec-23 06:30N 30°06' W 093°19'0 0.0
2017-Dec-23 06:00N 30°06' W 093°19'0 0.0
2017-Dec-23 05:30N 30°06' W 093°19'0 0.0
2017-Dec-23 05:00N 30°06' W 093°19'1 2.1
2017-Dec-23 04:30N 30°05' W 093°20'3 5.2
2017-Dec-23 04:00N 30°04' W 093°22'2 3.3
2017-Dec-23 03:30N 30°04' W 093°24'3 5.3
2017-Dec-23 03:00N 30°04' W 093°27'3 5.7
2017-Dec-23 02:30N 30°04' W 093°30'3 5.8
2017-Dec-23 02:00N 30°04' W 093°34'4 6.0
2017-Dec-23 01:24N 30°04' W 093°38'13 0.4
2017-Dec-21 14:51N 29°58' W 093°52'0 0.0
2017-Dec-21 13:15N 29°58' W 093°52'0 0.0
2017-Dec-21 12:56N 29°58' W 093°52'0 0.0
2017-Dec-21 12:30N 29°58' W 093°52'0 0.0
2017-Dec-21 12:01N 29°58' W 093°52'0 0.0
2017-Dec-21 11:30N 29°58' W 093°52'0 0.0
2017-Dec-21 10:59N 29°58' W 093°52'0 0.0
2017-Dec-21 10:25N 29°58' W 093°52'0 0.0
2017-Dec-21 09:59N 29°58' W 093°52'0 0.0
2017-Dec-21 09:25N 29°58' W 093°52'0 0.0
2017-Dec-21 08:59N 29°58' W 093°52'0 0.0
2017-Dec-21 08:29N 29°58' W 093°52'0 0.0
2017-Dec-21 08:01N 29°58' W 093°52'0 0.0
2017-Dec-21 07:31N 29°58' W 093°52'0 0.0
2017-Dec-21 07:01N 29°58' W 093°52'0 0.0
2017-Dec-21 06:29N 29°58' W 093°52'0 0.0
2017-Dec-21 06:00N 29°58' W 093°52'0 0.0
2017-Dec-21 05:31N 29°58' W 093°52'0 0.0
2017-Dec-21 05:00N 29°58' W 093°52'2 5.0
2017-Dec-21 04:31N 29°59' W 093°54'1 0.6
2017-Dec-21 02:07N 29°59' W 093°53'2 3.3
2017-Dec-21 01:37N 29°58' W 093°52'1 2.9
2017-Dec-21 01:17N 29°58' W 093°51'0 0.0
2017-Dec-21 00:58N 29°58' W 093°51'0 0.4
2017-Dec-21 00:28N 29°58' W 093°51'0 0.0
2017-Dec-20 23:53N 29°58' W 093°51'  
Track history (hours):
 
Tides and Currents Weather Stations Pressure Air Temp Water Temp Dewpoint Dewpoint Depression Visibility Wind Speed Wind Dir Waves Ship Positions

Johnny James

Owner: CALLAIS & SONS INC, CUT OFF, LA. More information available from US FCC via Universal Licensing System and Coast Guard Vessel Documentation Center.

Last reported at 2017-Dec-30 16:00 UTC. Time now 2018-Apr-22 16:28 UTC.
Position N 29°50' W 091°60'.
Warning: this ship's position is months out of date.

MMSI: 368053796.

Date/timePositionNaut miles runAvg speedWind from/ knotsBaromVisibWave heightAir tempDewpointWater temp
2017-Dec-30 16:00N 29°50' W 091°60'2 4.6
2017-Dec-30 15:29N 29°51' W 091°57'6 5.3
2017-Dec-30 14:21N 29°50' W 091°50'  
2017-Dec-25 04:47N 29°34' W 090°28'2 6.2
2017-Dec-25 04:29N 29°34' W 090°30'3 5.9
2017-Dec-25 03:59N 29°34' W 090°34'3 5.5
2017-Dec-25 03:30N 29°35' W 090°37'2 4.9
2017-Dec-25 03:00N 29°36' W 090°39'3 5.8
2017-Dec-25 02:30N 29°37' W 090°42'2 5.0
2017-Dec-25 02:00N 29°34' W 090°43'2 4.4
2017-Dec-25 01:30N 29°33' W 090°45'0 0.3
2017-Dec-25 01:00N 29°33' W 090°45'0 0.0
2017-Dec-25 00:30N 29°33' W 090°45'2 3.5
2017-Dec-25 00:00N 29°32' W 090°47'64 4.8
2017-Dec-24 10:36N 29°50' W 091°58'1 5.9
2017-Dec-24 10:25N 29°50' W 091°59'2 5.7
2017-Dec-24 10:00N 29°49' W 092°02'2 4.5
2017-Dec-24 09:30N 29°48' W 092°04'0 0.2
2017-Dec-24 09:00N 29°48' W 092°04'0 0.2
2017-Dec-24 08:30N 29°48' W 092°04'2 4.7
2017-Dec-24 08:00N 29°48' W 092°07'3 5.2
2017-Dec-24 07:30N 29°47' W 092°10'2 4.8
2017-Dec-24 07:00N 29°47' W 092°12'1 1.8
2017-Dec-24 06:30N 29°48' W 092°13'0 0.0
2017-Dec-24 06:00N 29°48' W 092°13'1 2.9
2017-Dec-24 05:30N 29°48' W 092°15'3 5.7
2017-Dec-24 05:00N 29°50' W 092°18'0 0.4
2017-Dec-24 04:30N 29°50' W 092°18'3 4.5
2017-Dec-24 03:54N 29°51' W 092°21'2 4.2
2017-Dec-24 03:23N 29°52' W 092°23'0 0.1
2017-Dec-24 02:32N 29°52' W 092°23'0 0.4
2017-Dec-24 02:30N 29°52' W 092°23'36 5.4
2017-Dec-23 19:52N 29°56' W 093°04'2 5.6
2017-Dec-23 19:30N 29°56' W 093°06'0 0.9
2017-Dec-23 19:00N 29°56' W 093°07'1 2.5
2017-Dec-23 18:30N 29°56' W 093°08'2 4.4
2017-Dec-23 18:00N 29°57' W 093°10'2 4.6
2017-Dec-23 17:30N 29°59' W 093°12'2 5.0
2017-Dec-23 17:00N 30°01' W 093°14'3 5.1
2017-Dec-23 16:30N 30°03' W 093°16'2 4.7
2017-Dec-23 16:00N 30°05' W 093°17'2 3.8
2017-Dec-23 15:30N 30°06' W 093°19'0 0.4
2017-Dec-23 15:00N 30°06' W 093°19'0 0.1
2017-Dec-23 14:30N 30°06' W 093°19'0 0.0
2017-Dec-23 14:00N 30°06' W 093°19'0 0.0
2017-Dec-23 13:30N 30°06' W 093°19'0 0.0
2017-Dec-23 13:00N 30°06' W 093°19'0 0.0
2017-Dec-23 12:30N 30°06' W 093°19'0 0.1
2017-Dec-23 12:00N 30°06' W 093°19'0 0.3
2017-Dec-23 11:30N 30°06' W 093°19'0 0.0
2017-Dec-23 11:00N 30°06' W 093°19'0 0.0
2017-Dec-23 10:30N 30°06' W 093°19'0 0.0
2017-Dec-23 10:00N 30°06' W 093°19'0 0.1
2017-Dec-23 09:30N 30°06' W 093°19'0 0.0
2017-Dec-23 09:00N 30°06' W 093°19'0 0.0
2017-Dec-23 08:30N 30°06' W 093°19'0 0.1
2017-Dec-23 08:00N 30°06' W 093°19'0 0.0
2017-Dec-23 07:30N 30°06' W 093°19'0 0.0
2017-Dec-23 07:00N 30°06' W 093°19'0 0.0
2017-Dec-23 06:30N 30°06' W 093°19'0 0.0
2017-Dec-23 06:00N 30°06' W 093°19'0 0.0
2017-Dec-23 05:30N 30°06' W 093°19'0 0.0
2017-Dec-23 05:00N 30°06' W 093°19'1 2.1
2017-Dec-23 04:30N 30°05' W 093°20'3 5.2
2017-Dec-23 04:00N 30°04' W 093°22'2 3.3
2017-Dec-23 03:30N 30°04' W 093°24'3 5.3
2017-Dec-23 03:00N 30°04' W 093°27'3 5.7
2017-Dec-23 02:30N 30°04' W 093°30'3 5.8
2017-Dec-23 02:00N 30°04' W 093°34'4 6.0
2017-Dec-23 01:24N 30°04' W 093°38'13 0.4
2017-Dec-21 14:51N 29°58' W 093°52'0 0.0
2017-Dec-21 13:15N 29°58' W 093°52'0 0.0
2017-Dec-21 12:56N 29°58' W 093°52'0 0.0
2017-Dec-21 12:30N 29°58' W 093°52'0 0.0
2017-Dec-21 12:01N 29°58' W 093°52'0 0.0
2017-Dec-21 11:30N 29°58' W 093°52'0 0.0
2017-Dec-21 10:59N 29°58' W 093°52'0 0.0
2017-Dec-21 10:25N 29°58' W 093°52'0 0.0
2017-Dec-21 09:59N 29°58' W 093°52'0 0.0
2017-Dec-21 09:25N 29°58' W 093°52'0 0.0
2017-Dec-21 08:59N 29°58' W 093°52'0 0.0
2017-Dec-21 08:29N 29°58' W 093°52'0 0.0
2017-Dec-21 08:01N 29°58' W 093°52'0 0.0
2017-Dec-21 07:31N 29°58' W 093°52'0 0.0
2017-Dec-21 07:01N 29°58' W 093°52'0 0.0
2017-Dec-21 06:29N 29°58' W 093°52'0 0.0
2017-Dec-21 06:00N 29°58' W 093°52'0 0.0
2017-Dec-21 05:31N 29°58' W 093°52'0 0.0
2017-Dec-21 05:00N 29°58' W 093°52'2 5.0
2017-Dec-21 04:31N 29°59' W 093°54'1 0.6
2017-Dec-21 02:07N 29°59' W 093°53'2 3.3
2017-Dec-21 01:37N 29°58' W 093°52'1 2.9
2017-Dec-21 01:17N 29°58' W 093°51'0 0.0
2017-Dec-21 00:58N 29°58' W 093°51'0 0.4
2017-Dec-21 00:28N 29°58' W 093°51'0 0.0
2017-Dec-20 23:53N 29°58' W 093°51'  

Dump ship's entire track history